Time;durP1;ratioP1;P1;durP2;ratioP2;P2;SDS_P1;SDS_P2;PMS_P1;PMS_P2;Temp;Humidity;BMP_temperature;BMP_pressure;BME280_temperature;BME280_humidity;BME280_pressure;Samples;Min_cycle;Max_cycle;Signal;HPM_P1;HPM_P2
2023/04/27 00:00:21;;;;;;;;;;;7.90;99.90;;;;;;5045083;28;19992;-64
2023/04/27 00:02:47;;;;;;;;;;;7.90;99.90;;;;;;5040890;28;19928;-64
2023/04/27 00:05:12;;;;;;;;;;;7.80;99.90;;;;;;5040221;28;19979;-64
2023/04/27 00:07:38;;;;;;;;;;;7.80;99.90;;;;;;5044523;28;19955;-65
2023/04/27 00:10:03;;;;;;;;;;;7.80;99.90;;;;;;5040847;28;19912;-63
2023/04/27 00:12:29;;;;;;;;;;;7.80;99.90;;;;;;5039919;28;19963;-64
2023/04/27 00:14:55;;;;;;;;;;;7.80;99.90;;;;;;5042269;28;19995;-64
2023/04/27 00:17:20;;;;;;;;;;;7.80;99.90;;;;;;5044594;28;19913;-63
2023/04/27 00:19:47;;;;;;;;;;;7.90;99.90;;;;;;5040352;28;19936;-63
2023/04/27 00:22:12;;;;;;;;;;;7.80;99.90;;;;;;5042523;28;22968;-63
2023/04/27 00:24:38;;;;;;;;;;;7.80;99.90;;;;;;5046024;28;20002;-65
2023/04/27 00:27:04;;;;;;;;;;;7.70;99.90;;;;;;5042599;28;19923;-64
2023/04/27 00:29:30;;;;;;;;;;;7.80;99.90;;;;;;5037628;28;19919;-63
2023/04/27 00:31:55;;;;;;;;;;;7.90;99.90;;;;;;5042060;28;20016;-64
2023/04/27 00:34:21;;;;;;;;;;;7.90;99.90;;;;;;5044296;28;19920;-64
2023/04/27 00:36:46;;;;;;;;;;;7.80;99.90;;;;;;5040106;28;20001;-64
2023/04/27 00:39:12;;;;;;;;;;;7.80;99.90;;;;;;5038777;28;20488;-63
2023/04/27 00:41:38;;;;;;;;;;;7.80;99.90;;;;;;5046398;28;19974;-63
2023/04/27 00:44:04;;;;;;;;;;;7.80;99.90;;;;;;5040570;28;20398;-65
2023/04/27 00:46:30;;;;;;;;;;;7.80;99.90;;;;;;5038614;28;19913;-64
2023/04/27 00:48:55;;;;;;;;;;;7.80;99.90;;;;;;5040918;28;19920;-64
2023/04/27 00:51:21;;;;;;;;;;;7.80;99.90;;;;;;5044155;28;19913;-64
2023/04/27 00:53:47;;;;;;;;;;;7.70;99.90;;;;;;5035969;28;19913;-65
2023/04/27 00:56:13;;;;;;;;;;;7.70;99.90;;;;;;5038037;28;19925;-64
2023/04/27 00:58:39;;;;;;;;;;;7.70;99.90;;;;;;5046463;28;19959;-63
2023/04/27 01:01:04;;;;;;;;;;;7.70;99.90;;;;;;5040438;28;19913;-64
2023/04/27 01:03:30;;;;;;;;;;;7.60;99.90;;;;;;5038378;28;20272;-63
2023/04/27 01:05:58;;;;;;;;;;;7.70;99.90;;;;;;5046327;28;19917;-63
2023/04/27 01:08:24;;;;;;;;;;;7.60;99.90;;;;;;5035723;28;19913;-64
2023/04/27 01:10:49;;;;;;;;;;;7.60;99.90;;;;;;5043454;28;20017;-64
2023/04/27 01:13:15;;;;;;;;;;;7.50;99.90;;;;;;5039994;28;19916;-64
2023/04/27 01:15:40;;;;;;;;;;;7.40;99.90;;;;;;5036645;28;19928;-64
2023/04/27 01:18:06;;;;;;;;;;;7.40;99.90;;;;;;5038880;28;19913;-63
2023/04/27 01:20:32;;;;;;;;;;;7.50;99.90;;;;;;5045103;28;19909;-63
2023/04/27 01:22:58;;;;;;;;;;;7.50;99.90;;;;;;5038919;28;20392;-64
2023/04/27 01:25:24;;;;;;;;;;;7.40;99.90;;;;;;5038774;28;20381;-62
2023/04/27 01:27:49;;;;;;;;;;;7.40;99.90;;;;;;5043400;28;20016;-64
2023/04/27 01:30:15;;;;;;;;;;;7.40;99.90;;;;;;5040840;28;20373;-65
2023/04/27 01:32:40;;;;;;;;;;;7.40;99.90;;;;;;5036464;28;19913;-64
2023/04/27 01:35:06;;;;;;;;;;;7.50;99.90;;;;;;5038533;28;19921;-64
2023/04/27 01:37:32;;;;;;;;;;;7.50;99.90;;;;;;5044652;28;19913;-64
2023/04/27 01:39:58;;;;;;;;;;;7.40;99.90;;;;;;5038880;28;20292;-64
2023/04/27 01:42:23;;;;;;;;;;;7.50;99.90;;;;;;5038197;28;19913;-64
2023/04/27 01:44:49;;;;;;;;;;;7.50;99.90;;;;;;5042891;28;19972;-64
2023/04/27 01:47:16;;;;;;;;;;;7.50;99.90;;;;;;5040437;28;20379;-63
2023/04/27 01:49:41;;;;;;;;;;;7.40;99.90;;;;;;5035201;28;20266;-65
2023/04/27 01:52:07;;;;;;;;;;;7.50;99.90;;;;;;5037873;28;19913;-65
2023/04/27 01:54:32;;;;;;;;;;;7.40;99.90;;;;;;5044567;28;19921;-63
2023/04/27 01:56:58;;;;;;;;;;;7.30;99.90;;;;;;5038254;28;19917;-65
2023/04/27 01:59:24;;;;;;;;;;;7.30;99.90;;;;;;5038198;28;19967;-63
2023/04/27 02:01:49;;;;;;;;;;;7.30;99.90;;;;;;5042185;28;19920;-64
2023/04/27 02:04:15;;;;;;;;;;;7.40;99.90;;;;;;5040375;28;19931;-64
2023/04/27 02:06:40;;;;;;;;;;;7.40;99.90;;;;;;5037397;28;19913;-64
2023/04/27 02:09:06;;;;;;;;;;;7.30;99.90;;;;;;5038926;28;20377;-64
2023/04/27 02:11:31;;;;;;;;;;;7.30;99.90;;;;;;5043617;28;19913;-63
2023/04/27 02:13:57;;;;;;;;;;;7.30;99.90;;;;;;5038085;28;19913;-64
2023/04/27 02:16:22;;;;;;;;;;;7.30;99.90;;;;;;5038084;28;20007;-64
2023/04/27 02:18:48;;;;;;;;;;;7.40;99.90;;;;;;5046261;28;19917;-64
2023/04/27 02:21:14;;;;;;;;;;;7.50;99.90;;;;;;5031979;28;19924;-63
2023/04/27 02:23:39;;;;;;;;;;;7.50;99.90;;;;;;5044180;28;19913;-64
2023/04/27 02:26:05;;;;;;;;;;;7.40;99.90;;;;;;5038136;28;19912;-64
2023/04/27 02:28:31;;;;;;;;;;;7.20;99.90;;;;;;5036813;28;20063;-65
2023/04/27 02:30:57;;;;;;;;;;;7.10;99.90;;;;;;5039030;28;19913;-64
2023/04/27 02:33:22;;;;;;;;;;;6.90;99.90;;;;;;5042631;28;19920;-64
2023/04/27 02:35:48;;;;;;;;;;;6.80;99.90;;;;;;5037975;28;19929;-64
2023/04/27 02:38:13;;;;;;;;;;;6.70;99.90;;;;;;5037458;28;19924;-64
2023/04/27 02:40:39;;;;;;;;;;;6.60;99.90;;;;;;5042306;28;19919;-64
2023/04/27 02:43:04;;;;;;;;;;;6.60;99.90;;;;;;5038223;28;19967;-65
2023/04/27 02:45:30;;;;;;;;;;;6.50;99.90;;;;;;5036979;28;19920;-65
2023/04/27 02:47:55;;;;;;;;;;;6.50;99.90;;;;;;5039127;28;19940;-65
2023/04/27 02:50:21;;;;;;;;;;;6.40;99.90;;;;;;5042044;28;19966;-65
2023/04/27 02:52:46;;;;;;;;;;;6.40;99.90;;;;;;5034669;28;20428;-65
2023/04/27 02:55:13;;;;;;;;;;;6.40;99.90;;;;;;5036467;28;19975;-64
2023/04/27 02:57:39;;;;;;;;;;;6.40;99.90;;;;;;5041960;28;19964;-65
2023/04/27 03:00:06;;;;;;;;;;;6.40;99.90;;;;;;5038208;28;19920;-65
2023/04/27 03:02:31;;;;;;;;;;;6.40;99.90;;;;;;5039444;28;19920;-64
2023/04/27 03:04:58;;;;;;;;;;;6.40;99.90;;;;;;5042682;28;19913;-64
2023/04/27 03:07:23;;;;;;;;;;;6.30;99.90;;;;;;5046573;28;20050;-64
2023/04/27 03:09:49;;;;;;;;;;;6.30;99.90;;;;;;5038145;28;19978;-64
2023/04/27 03:12:14;;;;;;;;;;;6.30;99.90;;;;;;5048484;28;19917;-63
2023/04/27 03:14:40;;;;;;;;;;;6.20;99.90;;;;;;5040333;28;19920;-63
2023/04/27 03:17:05;;;;;;;;;;;6.20;99.90;;;;;;5042459;28;19920;-64
2023/04/27 03:19:31;;;;;;;;;;;6.20;99.90;;;;;;5047295;28;20384;-64
2023/04/27 03:21:57;;;;;;;;;;;6.20;99.90;;;;;;5041465;28;19913;-64
2023/04/27 03:24:24;;;;;;;;;;;6.10;99.90;;;;;;5041665;28;20387;-63
2023/04/27 03:26:50;;;;;;;;;;;6.10;99.90;;;;;;5049472;28;19912;-64
2023/04/27 03:29:15;;;;;;;;;;;6.00;99.90;;;;;;5035252;28;20012;-62
2023/04/27 03:31:41;;;;;;;;;;;6.00;99.90;;;;;;5047232;28;19963;-65
2023/04/27 03:34:07;;;;;;;;;;;5.90;99.90;;;;;;5041875;28;19920;-64
2023/04/27 03:36:32;;;;;;;;;;;5.90;99.90;;;;;;5040188;28;19913;-64
2023/04/27 03:38:58;;;;;;;;;;;6.00;99.90;;;;;;5048205;28;20299;-64
2023/04/27 03:41:23;;;;;;;;;;;5.90;99.90;;;;;;5041365;28;19936;-63
2023/04/27 03:43:51;;;;;;;;;;;5.80;99.90;;;;;;5037232;28;19922;-65
2023/04/27 03:46:17;;;;;;;;;;;5.80;99.90;;;;;;5048015;28;19935;-63
2023/04/27 03:48:42;;;;;;;;;;;5.70;99.90;;;;;;5039798;28;19995;-64
2023/04/27 03:51:08;;;;;;;;;;;5.70;99.90;;;;;;5041273;28;19923;-64
2023/04/27 03:53:33;;;;;;;;;;;5.70;99.90;;;;;;5046933;28;19917;-64
2023/04/27 03:56:00;;;;;;;;;;;5.70;99.90;;;;;;5040509;28;20019;-64
2023/04/27 03:58:26;;;;;;;;;;;5.70;99.90;;;;;;5040241;28;19913;-63
2023/04/27 04:00:53;;;;;;;;;;;5.70;99.90;;;;;;5043879;28;19919;-64
2023/04/27 04:03:19;;;;;;;;;;;5.70;99.90;;;;;;5044568;28;19921;-64
2023/04/27 04:05:45;;;;;;;;;;;5.70;99.90;;;;;;5037673;28;19913;-64
2023/04/27 04:08:12;;;;;;;;;;;5.70;99.90;;;;;;5039740;28;19913;-63
2023/04/27 04:10:38;;;;;;;;;;;5.70;99.90;;;;;;5045620;28;19953;-64
2023/04/27 04:13:03;;;;;;;;;;;5.70;99.90;;;;;;5039584;28;19959;-65
2023/04/27 04:15:29;;;;;;;;;;;5.80;99.90;;;;;;5039329;28;19921;-65
2023/04/27 04:17:55;;;;;;;;;;;5.70;99.90;;;;;;5047342;28;19919;-64
2023/04/27 04:20:21;;;;;;;;;;;5.80;99.90;;;;;;5036485;28;20420;-65
2023/04/27 04:22:46;;;;;;;;;;;5.90;99.90;;;;;;5045193;28;20012;-65
2023/04/27 04:25:12;;;;;;;;;;;5.90;99.90;;;;;;5041659;28;19996;-65
2023/04/27 04:27:38;;;;;;;;;;;5.90;99.90;;;;;;5039615;28;20042;-66
2023/04/27 04:30:05;;;;;;;;;;;5.90;99.90;;;;;;5041035;28;19914;-65
2023/04/27 04:32:30;;;;;;;;;;;5.90;99.90;;;;;;5045744;28;19913;-64
2023/04/27 04:34:56;;;;;;;;;;;6.00;99.90;;;;;;5039691;28;19974;-64
2023/04/27 04:37:22;;;;;;;;;;;5.90;99.90;;;;;;5040174;28;20011;-64
2023/04/27 04:39:47;;;;;;;;;;;6.00;99.90;;;;;;5047899;28;20364;-64
2023/04/27 04:42:13;;;;;;;;;;;6.10;99.90;;;;;;5033357;28;20343;-65
2023/04/27 04:44:39;;;;;;;;;;;6.20;99.90;;;;;;5045465;28;20402;-65
2023/04/27 04:47:05;;;;;;;;;;;6.30;99.90;;;;;;5040282;28;19913;-63
2023/04/27 04:49:31;;;;;;;;;;;6.30;99.90;;;;;;5038722;28;19917;-64
2023/04/27 04:51:56;;;;;;;;;;;6.30;99.90;;;;;;5046811;28;19917;-64
2023/04/27 04:54:22;;;;;;;;;;;6.30;99.90;;;;;;5035663;28;19913;-63
2023/04/27 04:56:47;;;;;;;;;;;6.30;99.90;;;;;;5039769;28;19924;-64
2023/04/27 04:59:13;;;;;;;;;;;6.40;99.90;;;;;;5046511;28;20982;-65
2023/04/27 05:01:38;;;;;;;;;;;6.50;99.90;;;;;;5037999;28;19962;-65
2023/04/27 05:04:04;;;;;;;;;;;6.60;99.90;;;;;;5040424;28;19913;-63
2023/04/27 05:06:31;;;;;;;;;;;6.80;99.90;;;;;;5044987;28;19913;-63
2023/04/27 05:08:56;;;;;;;;;;;7.10;99.90;;;;;;5039044;28;20011;-65
2023/04/27 05:11:22;;;;;;;;;;;7.30;99.90;;;;;;5038953;28;19971;-66
2023/04/27 05:13:47;;;;;;;;;;;7.50;99.90;;;;;;5043146;28;20008;-65
2023/04/27 05:16:13;;;;;;;;;;;7.60;99.90;;;;;;5040839;28;20405;-64
2023/04/27 05:18:39;;;;;;;;;;;7.80;99.90;;;;;;5037002;28;20284;-64
2023/04/27 05:21:04;;;;;;;;;;;8.00;99.90;;;;;;5039133;28;20012;-64
2023/04/27 05:23:30;;;;;;;;;;;8.20;99.90;;;;;;5039586;28;19928;-65
2023/04/27 05:25:55;;;;;;;;;;;8.40;99.90;;;;;;5037902;28;19992;-63
2023/04/27 05:28:21;;;;;;;;;;;8.60;99.90;;;;;;5039488;28;20389;-65
2023/04/27 05:30:47;;;;;;;;;;;8.70;99.90;;;;;;5047264;28;20325;-64
2023/04/27 05:33:12;;;;;;;;;;;8.90;99.90;;;;;;5041334;28;19913;-65
2023/04/27 05:35:38;;;;;;;;;;;8.90;99.90;;;;;;5037322;28;20099;-64
2023/04/27 05:38:03;;;;;;;;;;;8.90;99.90;;;;;;5039314;28;20035;-63
2023/04/27 05:40:29;;;;;;;;;;;9.00;99.90;;;;;;5043736;28;19913;-64
2023/04/27 05:42:55;;;;;;;;;;;9.10;99.90;;;;;;5037602;28;19921;-65
2023/04/27 05:45:21;;;;;;;;;;;9.10;99.90;;;;;;5039760;28;19940;-64
2023/04/27 05:47:46;;;;;;;;;;;9.10;99.90;;;;;;5046783;28;19913;-64
2023/04/27 05:50:12;;;;;;;;;;;9.10;99.90;;;;;;5040881;28;19913;-65
2023/04/27 05:52:38;;;;;;;;;;;9.10;99.90;;;;;;5036957;28;19996;-64
2023/04/27 05:55:03;;;;;;;;;;;9.10;99.90;;;;;;5038624;28;19921;-64
2023/04/27 05:57:29;;;;;;;;;;;9.20;99.90;;;;;;5042575;28;19926;-64
2023/04/27 05:59:55;;;;;;;;;;;9.20;99.90;;;;;;5037391;28;19912;-63
2023/04/27 06:02:21;;;;;;;;;;;9.20;99.90;;;;;;5038805;28;19913;-63
2023/04/27 06:04:46;;;;;;;;;;;9.30;99.90;;;;;;5046254;28;19913;-63
2023/04/27 06:07:13;;;;;;;;;;;9.30;99.90;;;;;;5040104;28;20284;-64
2023/04/27 06:09:39;;;;;;;;;;;9.50;99.90;;;;;;5035989;28;20007;-64
2023/04/27 06:12:05;;;;;;;;;;;9.50;99.90;;;;;;5037688;28;20401;-64
2023/04/27 06:14:31;;;;;;;;;;;9.60;99.90;;;;;;5043530;28;19925;-64
2023/04/27 06:16:57;;;;;;;;;;;9.80;99.90;;;;;;5031873;28;19920;-64
2023/04/27 06:19:23;;;;;;;;;;;9.90;99.90;;;;;;5046170;28;19913;-62
2023/04/27 06:21:49;;;;;;;;;;;10.00;99.90;;;;;;5037828;28;19921;-62
2023/04/27 06:24:14;;;;;;;;;;;10.10;99.90;;;;;;5037331;28;19917;-65
2023/04/27 06:26:40;;;;;;;;;;;10.10;99.90;;;;;;5038138;28;20411;-65
2023/04/27 06:29:06;;;;;;;;;;;10.20;99.90;;;;;;5038208;28;19968;-66
2023/04/27 06:31:35;;;;;;;;;;;10.20;99.90;;;;;;5043835;28;19963;-65
2023/04/27 06:34:00;;;;;;;;;;;10.20;99.90;;;;;;5038040;28;19987;-63
2023/04/27 06:36:27;;;;;;;;;;;10.10;99.90;;;;;;5036602;28;20368;-66
2023/04/27 06:38:56;;;;;;;;;;;10.00;99.90;;;;;;5041333;28;19913;-64
2023/04/27 06:41:23;;;;;;;;;;;9.90;99.90;;;;;;5041490;28;19913;-64
2023/04/27 06:43:49;;;;;;;;;;;10.00;99.90;;;;;;5039950;28;19944;-64
2023/04/27 06:46:14;;;;;;;;;;;9.90;99.90;;;;;;5031435;28;19946;-64
2023/04/27 06:48:40;;;;;;;;;;;9.90;99.90;;;;;;5042348;28;19913;-64
2023/04/27 06:51:06;;;;;;;;;;;10.00;99.90;;;;;;5037808;28;20341;-65
2023/04/27 06:53:31;;;;;;;;;;;10.20;99.90;;;;;;5036684;28;19921;-63
2023/04/27 06:55:57;;;;;;;;;;;10.50;99.90;;;;;;5039477;28;19927;-64
2023/04/27 06:58:23;;;;;;;;;;;10.70;99.90;;;;;;5042100;28;19920;-65
2023/04/27 07:00:48;;;;;;;;;;;11.00;99.90;;;;;;5034010;28;20363;-64
2023/04/27 07:03:14;;;;;;;;;;;11.20;99.90;;;;;;5036317;28;19917;-65
2023/04/27 07:05:40;;;;;;;;;;;11.30;99.90;;;;;;5043963;28;19941;-64
2023/04/27 07:08:05;;;;;;;;;;;11.40;99.90;;;;;;5038413;28;19913;-64
2023/04/27 07:10:31;;;;;;;;;;;11.50;99.90;;;;;;5037012;28;19920;-61
2023/04/27 07:12:57;;;;;;;;;;;11.40;99.90;;;;;;5039377;28;20376;-66
2023/04/27 07:15:22;;;;;;;;;;;11.50;99.90;;;;;;5042139;28;20027;-65
2023/04/27 07:17:48;;;;;;;;;;;11.60;99.90;;;;;;5034822;28;20427;-65
2023/04/27 07:20:13;;;;;;;;;;;11.70;99.90;;;;;;5036694;28;20499;-64
2023/04/27 07:22:39;;;;;;;;;;;11.70;99.90;;;;;;5044024;28;19917;-64
2023/04/27 07:25:05;;;;;;;;;;;11.70;99.90;;;;;;5038259;28;19916;-64
2023/04/27 07:27:31;;;;;;;;;;;11.80;99.90;;;;;;5037373;28;19913;-64
2023/04/27 07:29:57;;;;;;;;;;;11.90;99.90;;;;;;5040384;28;19960;-65
2023/04/27 07:32:23;;;;;;;;;;;11.90;99.90;;;;;;5043339;28;20324;-65
2023/04/27 07:34:49;;;;;;;;;;;11.90;99.90;;;;;;5037301;28;19932;-64
2023/04/27 07:37:16;;;;;;;;;;;12.00;99.90;;;;;;5036812;28;20360;-64
2023/04/27 07:39:42;;;;;;;;;;;12.10;99.90;;;;;;5044363;28;20344;-65
2023/04/27 07:42:07;;;;;;;;;;;12.10;99.90;;;;;;5038523;28;19913;-64
2023/04/27 07:44:33;;;;;;;;;;;12.10;99.90;;;;;;5036209;28;19929;-64
2023/04/27 07:46:58;;;;;;;;;;;12.20;99.90;;;;;;5038675;28;20270;-65
2023/04/27 07:49:25;;;;;;;;;;;12.20;99.90;;;;;;5045911;28;19967;-65
2023/04/27 07:51:51;;;;;;;;;;;12.40;99.90;;;;;;5037055;28;19960;-64
2023/04/27 07:54:16;;;;;;;;;;;12.40;99.90;;;;;;5047049;28;19972;-65
2023/04/27 07:56:42;;;;;;;;;;;12.30;99.90;;;;;;5043361;28;19913;-64
2023/04/27 07:59:07;;;;;;;;;;;12.40;99.90;;;;;;5041908;28;19913;-65
2023/04/27 08:01:33;;;;;;;;;;;12.30;99.90;;;;;;5039144;28;19913;-64
2023/04/27 08:03:59;;;;;;;;;;;12.30;99.90;;;;;;5039990;28;20012;-65
2023/04/27 08:06:24;;;;;;;;;;;12.30;99.90;;;;;;5045331;28;19986;-65
2023/04/27 08:08:50;;;;;;;;;;;12.30;99.90;;;;;;5036552;28;20327;-64
2023/04/27 08:11:15;;;;;;;;;;;12.20;99.90;;;;;;5042681;28;19917;-64
2023/04/27 08:13:41;;;;;;;;;;;12.20;99.90;;;;;;5047153;28;20055;-63
2023/04/27 08:16:07;;;;;;;;;;;12.40;99.90;;;;;;5041056;28;19964;-63
2023/04/27 08:18:33;;;;;;;;;;;12.60;99.90;;;;;;5039164;28;19913;-64
2023/04/27 08:20:59;;;;;;;;;;;12.80;99.90;;;;;;5045856;28;19917;-64
2023/04/27 08:23:28;;;;;;;;;;;12.90;99.90;;;;;;5036239;28;19920;-65
2023/04/27 08:25:53;;;;;;;;;;;13.00;99.90;;;;;;5043859;28;19913;-63
2023/04/27 08:28:19;;;;;;;;;;;13.00;99.90;;;;;;5042314;28;19920;-65
2023/04/27 08:30:45;;;;;;;;;;;13.00;99.90;;;;;;5036979;28;20460;-64
2023/04/27 08:33:10;;;;;;;;;;;13.00;99.90;;;;;;5039234;28;19970;-65
2023/04/27 08:35:36;;;;;;;;;;;13.10;99.90;;;;;;5045864;28;20442;-65
2023/04/27 08:38:02;;;;;;;;;;;13.30;99.90;;;;;;5040017;28;19913;-64
2023/04/27 08:40:27;;;;;;;;;;;13.40;99.90;;;;;;5039465;28;20295;-62
2023/04/27 08:42:55;;;;;;;;;;;13.40;99.90;;;;;;5043380;28;19924;-65
2023/04/27 08:45:21;;;;;;;;;;;13.30;99.90;;;;;;5043767;28;19983;-64
2023/04/27 08:47:46;;;;;;;;;;;13.40;99.90;;;;;;5039574;28;19913;-64
2023/04/27 08:50:12;;;;;;;;;;;13.40;99.90;;;;;;5039507;28;20333;-65
2023/04/27 08:52:38;;;;;;;;;;;13.30;99.90;;;;;;5045818;28;19998;-63
2023/04/27 08:55:03;;;;;;;;;;;13.30;99.90;;;;;;5039789;28;19921;-65
2023/04/27 08:57:30;;;;;;;;;;;13.50;99.90;;;;;;5038513;28;19925;-64
2023/04/27 09:00:11;;;;;;;;;;;13.50;99.90;;;;;;5041149;28;19920;-64
2023/04/27 09:02:36;;;;;;;;;;;13.80;99.90;;;;;;5045614;28;19924;-64
2023/04/27 09:05:02;;;;;;;;;;;14.00;99.90;;;;;;5040027;28;20298;-65
2023/04/27 09:07:28;;;;;;;;;;;14.20;99.90;;;;;;5038816;28;19913;-63
2023/04/27 09:10:03;;;;;;;;;;;14.10;99.90;;;;;;5048069;28;19920;-64
2023/04/27 09:12:29;;;;;;;;;;;14.30;99.90;;;;;;5035651;28;19913;-64
2023/04/27 09:14:58;;;;;;;;;;;14.40;99.90;;;;;;5042907;28;19928;-65
2023/04/27 09:17:25;;;;;;;;;;;14.40;99.90;;;;;;5043885;28;19912;-64
2023/04/27 09:19:50;;;;;;;;;;;14.30;99.90;;;;;;5051074;28;19913;-65
2023/04/27 09:22:16;;;;;;;;;;;14.40;99.90;;;;;;5032588;28;19913;-65
2023/04/27 09:24:51;;;;;;;;;;;14.50;99.90;;;;;;5044607;28;19940;-64
2023/04/27 09:27:20;;;;;;;;;;;14.50;99.90;;;;;;5041508;28;19913;-63
2023/04/27 09:29:46;;;;;;;;;;;14.50;99.90;;;;;;5038070;28;20444;-66
2023/04/27 09:32:15;;;;;;;;;;;14.30;99.90;;;;;;5049066;28;19956;-65
2023/04/27 09:34:41;;;;;;;;;;;14.30;99.90;;;;;;5037271;28;19970;-65
2023/04/27 09:37:09;;;;;;;;;;;14.20;99.90;;;;;;5039855;28;20311;-65
2023/04/27 09:39:35;;;;;;;;;;;14.20;99.90;;;;;;5044758;28;19952;-65
2023/04/27 09:42:01;;;;;;;;;;;14.20;99.90;;;;;;5039341;28;19913;-64
2023/04/27 09:44:27;;;;;;;;;;;14.50;99.90;;;;;;5045687;28;19921;-64
2023/04/27 09:46:54;;;;;;;;;;;14.50;99.90;;;;;;5043122;28;19913;-64
2023/04/27 09:49:20;;;;;;;;;;;14.40;99.90;;;;;;5040871;28;19913;-64
2023/04/27 09:51:46;;;;;;;;;;;14.50;99.90;;;;;;5035514;28;19967;-64
2023/04/27 09:54:12;;;;;;;;;;;14.50;99.90;;;;;;5037447;28;19944;-64
2023/04/27 09:56:47;;;;;;;;;;;14.60;99.90;;;;;;5044110;28;19921;-63
2023/04/27 09:59:25;;;;;;;;;;;14.30;99.90;;;;;;5039731;28;19967;-64
2023/04/27 10:01:55;;;;;;;;;;;14.40;99.90;;;;;;5038726;28;20396;-65
2023/04/27 10:04:33;;;;;;;;;;;14.50;99.90;;;;;;5038262;28;20380;-64
2023/04/27 10:07:11;;;;;;;;;;;14.70;99.90;;;;;;5045910;28;20420;-64
2023/04/27 10:09:41;;;;;;;;;;;14.70;99.90;;;;;;5044396;28;20391;-65
2023/04/27 10:12:13;;;;;;;;;;;14.90;99.90;;;;;;5041878;28;19913;-64
2023/04/27 10:14:47;;;;;;;;;;;15.10;99.90;;;;;;5044253;28;19913;-65
2023/04/27 10:17:12;;;;;;;;;;;15.10;99.90;;;;;;5045008;28;19917;-64
2023/04/27 10:19:38;;;;;;;;;;;15.00;99.90;;;;;;5036064;28;20353;-64
2023/04/27 10:22:05;;;;;;;;;;;14.70;99.90;;;;;;5040293;28;19917;-64
2023/04/27 10:24:37;;;;;;;;;;;14.60;99.90;;;;;;5050178;28;20011;-65
2023/04/27 10:27:04;;;;;;;;;;;14.60;99.90;;;;;;5035494;28;19920;-65
2023/04/27 10:29:43;;;;;;;;;;;14.60;99.90;;;;;;5050264;28;19916;-64
2023/04/27 10:32:11;;;;;;;;;;;14.60;99.90;;;;;;5038421;28;20015;-64
2023/04/27 10:34:37;;;;;;;;;;;14.60;99.90;;;;;;5043775;28;19944;-64
2023/04/27 10:37:04;;;;;;;;;;;14.60;99.90;;;;;;5047184;28;19912;-64
2023/04/27 10:39:33;;;;;;;;;;;14.60;99.90;;;;;;5035098;28;19924;-66
2023/04/27 10:41:59;;;;;;;;;;;14.60;99.90;;;;;;5047502;28;19924;-65
2023/04/27 10:44:29;;;;;;;;;;;14.40;99.90;;;;;;5034125;28;20396;-65
2023/04/27 10:46:56;;;;;;;;;;;14.30;99.90;;;;;;5041514;28;19914;-65
2023/04/27 10:49:22;;;;;;;;;;;14.20;99.90;;;;;;5042202;28;19940;-64
2023/04/27 10:51:51;;;;;;;;;;;14.20;99.90;;;;;;5049912;28;19912;-65
2023/04/27 10:54:17;;;;;;;;;;;14.30;99.90;;;;;;5031908;28;20303;-64
2023/04/27 10:56:43;;;;;;;;;;;14.60;99.90;;;;;;5038893;28;19928;-63
2023/04/27 10:59:08;;;;;;;;;;;14.80;99.90;;;;;;5037775;28;19913;-65
2023/04/27 11:01:35;;;;;;;;;;;15.20;99.90;;;;;;5044181;28;19916;-65
2023/04/27 11:04:00;;;;;;;;;;;15.60;99.90;;;;;;5038368;28;20000;-64
2023/04/27 11:06:27;;;;;;;;;;;15.90;99.90;;;;;;5037921;28;20341;-64
2023/04/27 11:08:53;;;;;;;;;;;16.20;99.90;;;;;;5046204;28;20012;-65
2023/04/27 11:11:18;;;;;;;;;;;16.60;99.90;;;;;;5040228;28;20335;-65
2023/04/27 11:13:47;;;;;;;;;;;16.30;99.90;;;;;;5045164;28;19920;-64
2023/04/27 11:16:14;;;;;;;;;;;16.20;99.90;;;;;;5037945;28;19921;-64
2023/04/27 11:18:39;;;;;;;;;;;16.20;99.90;;;;;;5044083;28;19943;-65
2023/04/27 11:21:07;;;;;;;;;;;16.30;99.90;;;;;;5038101;28;19917;-65
2023/04/27 11:23:36;;;;;;;;;;;16.20;99.90;;;;;;5045791;28;19913;-63
2023/04/27 11:26:15;;;;;;;;;;;16.20;99.90;;;;;;5042301;28;20285;-64
2023/04/27 11:28:42;;;;;;;;;;;16.40;99.90;;;;;;5052928;28;19913;-64
2023/04/27 11:31:07;;;;;;;;;;;16.30;99.90;;;;;;5041940;28;19920;-64
2023/04/27 11:33:33;;;;;;;;;;;16.40;99.90;;;;;;5046893;28;19912;-63
2023/04/27 11:35:59;;;;;;;;;;;16.00;99.90;;;;;;5040930;28;19959;-65
2023/04/27 11:38:26;;;;;;;;;;;16.10;99.90;;;;;;5041090;28;19956;-64
2023/04/27 11:40:59;;;;;;;;;;;16.20;99.90;;;;;;5052030;28;19935;-63
2023/04/27 11:43:25;;;;;;;;;;;16.00;99.90;;;;;;5039510;28;20487;-64
2023/04/27 11:45:51;;;;;;;;;;;16.00;99.90;;;;;;5044563;28;20012;-64
2023/04/27 11:48:16;;;;;;;;;;;16.00;99.90;;;;;;5042576;28;20015;-65
2023/04/27 11:50:49;;;;;;;;;;;16.00;99.90;;;;;;5038518;28;19917;-65
2023/04/27 11:53:14;;;;;;;;;;;15.90;99.90;;;;;;5042182;28;19912;-65
2023/04/27 11:55:41;;;;;;;;;;;15.70;99.90;;;;;;5040149;28;20023;-64
2023/04/27 11:58:13;;;;;;;;;;;15.50;99.90;;;;;;5041536;28;19967;-64
2023/04/27 12:00:39;;;;;;;;;;;15.40;99.90;;;;;;5047028;28;19913;-64
2023/04/27 12:03:05;;;;;;;;;;;15.10;99.90;;;;;;5041470;28;19913;-64
2023/04/27 12:05:30;;;;;;;;;;;14.70;99.90;;;;;;5045959;28;19912;-64
2023/04/27 12:07:57;;;;;;;;;;;14.60;99.90;;;;;;5039965;28;19913;-62
2023/04/27 12:10:23;;;;;;;;;;;14.50;99.90;;;;;;5040896;28;19913;-65
2023/04/27 12:12:49;;;;;;;;;;;14.40;99.90;;;;;;5044741;28;19914;-64
2023/04/27 12:15:15;;;;;;;;;;;14.50;99.90;;;;;;5041421;28;19928;-63
2023/04/27 12:17:40;;;;;;;;;;;14.70;99.90;;;;;;5052636;28;20376;-65
2023/04/27 12:20:06;;;;;;;;;;;14.90;99.90;;;;;;5041089;28;20003;-64
2023/04/27 12:22:32;;;;;;;;;;;15.20;99.90;;;;;;5039171;28;19920;-65
2023/04/27 12:24:57;;;;;;;;;;;15.20;99.90;;;;;;5049783;28;20296;-64
2023/04/27 12:27:23;;;;;;;;;;;15.30;99.90;;;;;;5039055;28;19913;-64
2023/04/27 12:29:49;;;;;;;;;;;15.60;99.90;;;;;;5052122;28;20368;-66
2023/04/27 12:32:15;;;;;;;;;;;15.90;99.90;;;;;;5039512;28;19984;-73
2023/04/27 12:34:41;;;;;;;;;;;16.10;99.90;;;;;;5045626;28;20395;-64
2023/04/27 12:37:07;;;;;;;;;;;16.60;99.90;;;;;;5040336;28;20365;-63
2023/04/27 12:39:33;;;;;;;;;;;17.00;99.90;;;;;;5045610;28;19919;-65
2023/04/27 12:41:58;;;;;;;;;;;17.60;99.90;;;;;;5041520;28;19913;-63
2023/04/27 12:44:24;;;;;;;;;;;17.80;99.90;;;;;;5046482;28;19974;-65
2023/04/27 12:46:50;;;;;;;;;;;17.80;99.90;;;;;;5044390;28;19917;-65
2023/04/27 12:49:16;;;;;;;;;;;17.40;99.90;;;;;;5041148;28;19917;-66
2023/04/27 12:51:41;;;;;;;;;;;17.60;99.90;;;;;;5037293;28;19913;-64
2023/04/27 12:54:08;;;;;;;;;;;17.70;99.90;;;;;;5049209;28;19920;-64
2023/04/27 12:56:34;;;;;;;;;;;17.40;99.90;;;;;;5038089;28;19956;-66
2023/04/27 12:58:59;;;;;;;;;;;17.20;99.90;;;;;;5049208;28;19967;-65
2023/04/27 13:01:26;;;;;;;;;;;17.20;99.90;;;;;;5039369;28;19913;-64
2023/04/27 13:03:52;;;;;;;;;;;17.10;99.90;;;;;;5047657;28;19919;-64
2023/04/27 13:06:18;;;;;;;;;;;17.20;99.90;;;;;;5047129;28;19920;-65
2023/04/27 13:08:44;;;;;;;;;;;17.30;99.90;;;;;;5038047;28;20377;-64
2023/04/27 13:11:10;;;;;;;;;;;17.60;99.90;;;;;;5039430;28;19924;-64
2023/04/27 13:13:36;;;;;;;;;;;17.90;99.90;;;;;;5045563;28;20335;-64
2023/04/27 13:16:03;;;;;;;;;;;17.90;99.90;;;;;;5041411;28;20336;-64
2023/04/27 13:18:29;;;;;;;;;;;17.60;99.90;;;;;;5044574;28;19954;-65
2023/04/27 13:20:56;;;;;;;;;;;17.30;99.90;;;;;;5040201;28;19958;-64
2023/04/27 13:23:21;;;;;;;;;;;16.90;99.90;;;;;;5039289;28;20025;-64
2023/04/27 13:25:48;;;;;;;;;;;16.70;99.90;;;;;;5042767;28;19956;-64
2023/04/27 13:28:14;;;;;;;;;;;16.50;99.90;;;;;;5040434;28;20451;-64
2023/04/27 13:30:40;;;;;;;;;;;16.10;99.90;;;;;;5037312;28;19917;-64
2023/04/27 13:33:05;;;;;;;;;;;15.80;99.90;;;;;;5039186;28;20416;-66
2023/04/27 13:35:31;;;;;;;;;;;15.50;99.90;;;;;;5043831;28;20012;-65
2023/04/27 13:37:56;;;;;;;;;;;15.40;99.90;;;;;;5032622;28;19928;-63
2023/04/27 13:40:22;;;;;;;;;;;15.50;99.90;;;;;;5048143;28;19975;-65
2023/04/27 13:42:47;;;;;;;;;;;15.50;99.90;;;;;;5037304;28;19947;-65
2023/04/27 13:45:13;;;;;;;;;;;15.60;99.90;;;;;;5039946;28;19921;-66
2023/04/27 13:47:39;;;;;;;;;;;15.50;99.90;;;;;;5045328;28;19920;-65
2023/04/27 13:50:05;;;;;;;;;;;15.30;99.90;;;;;;5039037;28;19913;-65
2023/04/27 13:52:34;;;;;;;;;;;15.20;99.90;;;;;;5036633;28;21603;-65
2023/04/27 13:55:00;;;;;;;;;;;15.10;99.90;;;;;;5045308;28;19916;-65
2023/04/27 13:57:25;;;;;;;;;;;15.10;99.90;;;;;;5034571;28;19919;-65
2023/04/27 13:59:51;;;;;;;;;;;15.00;99.90;;;;;;5042992;28;20000;-65
2023/04/27 14:02:17;;;;;;;;;;;15.00;99.90;;;;;;5040300;28;19917;-65
2023/04/27 14:04:42;;;;;;;;;;;15.10;99.90;;;;;;5035792;28;19920;-65
2023/04/27 14:07:08;;;;;;;;;;;15.20;99.90;;;;;;5038277;28;19913;-65
2023/04/27 14:09:34;;;;;;;;;;;15.20;99.90;;;;;;5044275;28;19967;-64
2023/04/27 14:11:59;;;;;;;;;;;15.20;99.90;;;;;;5031589;28;19917;-65
2023/04/27 14:14:25;;;;;;;;;;;15.20;99.90;;;;;;5046396;28;19913;-66
2023/04/27 14:16:51;;;;;;;;;;;15.30;99.90;;;;;;5038011;28;20277;-66